Critz, Virginia
Current Conditions -  °F | °C
As of 3:35 PM on Thursday 27 Nov 2014 (Local Time) from KMTV Reporting Station
Scattered Clouds Scattered Clouds  
Wind Chill: 35°   Ceiling: Unl
Heat Index: 43°   Visibility: 10mi
Dew Point: 26°   Wind: 18mph
Humidity: 51%   Direction: 330°NNW
Pressure: 30.14"   Gusts: 26mph
Location:  36.63°N, 80.14°W
Report Text: KMTV 272035Z AUTO 33016G23KT 10SM SCT050 06/M03 A3014 RMK AO2 T00601035
Loading
Personal Weather Stations






























Interactive Weather Map New forecast layout! Learn more

10-Day Weather Forecast

Advertisements
Track Severe Weather on mobile